createdAt,value
2023-03-22T00:02:17.285Z,69.05
2023-03-22T00:04:46.571Z,71.07
2023-03-22T00:07:16.025Z,73.70
2023-03-22T00:09:45.643Z,72.23
2023-03-22T00:12:15.466Z,67.80
2023-03-22T00:14:45.453Z,67.37
2023-03-22T00:17:14.814Z,65.20
2023-03-22T00:19:44.906Z,74.47
2023-03-22T00:22:14.625Z,59.38
2023-03-22T00:24:44.103Z,63.75
2023-03-22T00:27:14.284Z,56.90
2023-03-22T00:29:43.699Z,58.60
2023-03-22T00:32:13.078Z,67.27
2023-03-22T00:34:42.395Z,64.95
2023-03-22T00:37:11.775Z,64.53
2023-03-22T00:39:41.089Z,71.72
2023-03-22T00:42:10.473Z,62.13
2023-03-22T00:44:39.991Z,56.83
2023-03-22T00:47:09.427Z,58.83
2023-03-22T00:49:38.800Z,57.70
2023-03-22T00:52:08.239Z,48.00
2023-03-22T00:54:37.742Z,61.58
2023-03-22T00:57:07.752Z,63.77
2023-03-22T00:59:38.607Z,63.23
2023-03-22T01:02:08.226Z,62.95
2023-03-22T01:04:37.673Z,64.20
2023-03-22T01:07:07.904Z,59.80
2023-03-22T01:09:37.934Z,58.80
2023-03-22T01:12:07.444Z,63.43
2023-03-22T01:14:37.044Z,53.23
2023-03-22T01:17:07.406Z,69.85
2023-03-22T01:19:38.021Z,55.03
2023-03-22T01:22:08.685Z,56.00
2023-03-22T01:24:38.434Z,51.65
2023-03-22T01:27:07.915Z,57.43
2023-03-22T01:29:37.287Z,62.45
2023-03-22T01:32:06.930Z,54.18
2023-03-22T01:34:36.373Z,50.70
2023-03-22T01:37:06.021Z,64.35
2023-03-22T01:39:35.945Z,49.13
2023-03-22T01:42:06.982Z,52.93
2023-03-22T01:44:39.159Z,64.15
2023-03-22T01:47:11.543Z,58.60
2023-03-22T01:49:41.595Z,57.48
2023-03-22T01:52:14.464Z,48.52
2023-03-22T01:54:53.461Z,57.78
2023-03-22T01:57:25.488Z,60.17
2023-03-22T01:59:55.485Z,47.73
2023-03-22T02:02:30.780Z,50.63
2023-03-22T02:05:04.035Z,47.93
2023-03-22T02:07:33.607Z,53.98
2023-03-22T02:10:04.991Z,55.78
2023-03-22T02:12:53.880Z,62.17
2023-03-22T02:15:50.045Z,58.48
2023-03-22T02:18:39.070Z,55.78
2023-03-22T02:21:14.415Z,50.52
2023-03-22T02:24:02.050Z,46.23
2023-03-22T02:26:47.157Z,56.92
2023-03-22T02:29:34.816Z,61.33
2023-03-22T02:32:26.848Z,50.65
2023-03-22T02:35:34.117Z,50.63
2023-03-22T02:38:21.321Z,61.40
2023-03-22T02:41:06.378Z,47.88
2023-03-22T02:44:00.034Z,43.52
2023-03-22T02:46:38.144Z,63.15
2023-03-22T02:49:16.557Z,48.42
2023-03-22T02:51:51.765Z,51.98
2023-03-22T02:54:24.220Z,59.70
2023-03-22T02:57:14.592Z,45.25
2023-03-22T03:02:17.059Z,48.75
2023-03-22T03:04:49.479Z,50.03
2023-03-22T03:07:21.862Z,47.05
2023-03-22T03:09:52.634Z,52.40
2023-03-22T03:12:25.167Z,45.63
2023-03-22T03:14:56.656Z,53.42
2023-03-22T03:17:51.068Z,48.20
2023-03-22T03:21:00.289Z,45.23
2023-03-22T03:23:54.062Z,47.60
2023-03-22T03:26:41.857Z,54.03
2023-03-22T03:29:37.096Z,55.78
2023-03-22T03:32:09.606Z,51.28
2023-03-22T03:35:15.416Z,52.00
2023-03-22T03:37:50.779Z,45.05
2023-03-22T03:40:23.176Z,53.28
2023-03-22T03:42:55.876Z,57.62
2023-03-22T03:45:26.419Z,47.70
2023-03-22T03:48:02.022Z,55.15
2023-03-22T03:50:31.877Z,48.55
2023-03-22T03:53:01.666Z,56.75
2023-03-22T03:55:31.600Z,61.02
2023-03-22T03:58:01.122Z,48.50
2023-03-22T04:00:31.101Z,46.77
2023-03-22T04:03:02.211Z,46.40
2023-03-22T04:05:34.039Z,54.00
2023-03-22T04:08:03.480Z,55.05
2023-03-22T04:10:34.305Z,57.20
2023-03-22T04:13:03.725Z,52.13
2023-03-22T04:15:33.808Z,52.38
2023-03-22T04:18:05.054Z,58.85
2023-03-22T04:20:34.475Z,50.50
2023-03-22T04:23:03.904Z,41.13
2023-03-22T04:25:33.937Z,45.23
2023-03-22T04:28:09.606Z,40.95
2023-03-22T04:30:39.701Z,58.73
2023-03-22T04:33:15.180Z,41.02
2023-03-22T04:36:04.563Z,55.88
2023-03-22T04:38:35.428Z,46.77
2023-03-22T04:41:05.456Z,57.67
2023-03-22T04:43:38.245Z,46.42
2023-03-22T04:46:11.877Z,48.05
2023-03-22T04:48:43.517Z,57.70
2023-03-22T04:51:13.312Z,47.15
2023-03-22T04:53:44.977Z,41.73
2023-03-22T04:56:16.236Z,45.20
2023-03-22T04:58:47.018Z,46.60
2023-03-22T05:03:47.419Z,51.95
2023-03-22T05:06:18.623Z,45.98
2023-03-22T05:08:49.713Z,50.73
2023-03-22T05:11:20.406Z,41.50
2023-03-22T05:13:51.441Z,37.55
2023-03-22T05:16:21.107Z,59.40
2023-03-22T05:18:54.452Z,41.75
2023-03-22T05:21:28.704Z,50.85
2023-03-22T05:24:00.340Z,46.45
2023-03-22T05:26:29.950Z,42.25
2023-03-22T05:28:59.864Z,33.98
2023-03-22T05:31:32.829Z,53.15
2023-03-22T05:34:03.900Z,58.00
2023-03-22T05:36:36.566Z,36.15
2023-03-22T05:39:25.331Z,41.55
2023-03-22T05:41:55.110Z,55.57
2023-03-22T05:44:24.624Z,44.73
2023-03-22T05:46:55.793Z,46.85
2023-03-22T05:49:27.147Z,49.45
2023-03-22T05:51:56.546Z,53.23
2023-03-22T05:54:27.638Z,42.88
2023-03-22T05:56:57.076Z,45.43
2023-03-22T05:59:26.523Z,50.70
2023-03-22T06:01:55.993Z,44.13
2023-03-22T06:04:25.521Z,40.33
2023-03-22T06:06:59.726Z,41.85
2023-03-22T06:09:30.970Z,49.88
2023-03-22T06:12:01.773Z,42.25
2023-03-22T06:14:31.286Z,41.02
2023-03-22T06:17:02.555Z,56.42
2023-03-22T06:19:32.303Z,49.23
2023-03-22T06:22:03.392Z,55.83
2023-03-22T06:24:34.171Z,40.70
2023-03-22T06:27:03.922Z,53.05
2023-03-22T06:29:33.879Z,39.75
2023-03-22T06:32:04.698Z,41.48
2023-03-22T06:37:03.331Z,47.23
2023-03-22T06:39:37.141Z,40.35
2023-03-22T06:42:07.244Z,53.10
2023-03-22T06:44:36.668Z,42.17
2023-03-22T06:47:11.588Z,39.85
2023-03-22T06:49:48.751Z,40.25
2023-03-22T06:52:20.523Z,32.33
2023-03-22T06:54:50.088Z,46.75
2023-03-22T06:57:19.579Z,34.17
2023-03-22T06:59:48.958Z,36.17
2023-03-22T07:02:18.343Z,42.13
2023-03-22T07:04:49.401Z,42.40
2023-03-22T07:07:18.878Z,34.33
2023-03-22T07:09:48.431Z,40.93
2023-03-22T07:12:18.743Z,40.53
2023-03-22T07:14:48.990Z,41.53
2023-03-22T07:17:22.734Z,39.95
2023-03-22T07:19:52.062Z,32.38
2023-03-22T07:22:22.477Z,47.98
2023-03-22T07:24:58.328Z,31.82
2023-03-22T07:27:25.872Z,41.25
2023-03-22T07:29:55.393Z,38.13
2023-03-22T07:32:24.963Z,41.43
2023-03-22T07:35:02.274Z,36.83
2023-03-22T07:37:31.709Z,34.37
2023-03-22T07:40:01.492Z,37.63
2023-03-22T07:42:32.260Z,42.93
2023-03-22T07:45:21.262Z,36.33
2023-03-22T07:47:58.410Z,26.07
2023-03-22T07:50:36.020Z,28.40
2023-03-22T07:53:06.812Z,31.90
2023-03-22T07:55:36.996Z,27.13
2023-03-22T07:58:07.148Z,24.25
2023-03-22T08:00:37.048Z,35.78
2023-03-22T08:03:08.455Z,31.68
2023-03-22T08:05:59.012Z,26.90
2023-03-22T08:08:28.521Z,39.03
2023-03-22T08:10:57.975Z,27.53
2023-03-22T08:13:27.556Z,29.40
2023-03-22T08:15:57.345Z,35.60
2023-03-22T08:18:26.952Z,40.88
2023-03-22T08:20:58.027Z,27.77
2023-03-22T08:23:40.873Z,23.07
2023-03-22T08:26:18.950Z,25.62
2023-03-22T08:28:48.486Z,30.00
2023-03-22T08:31:18.599Z,18.53
2023-03-22T08:36:20.403Z,27.40
2023-03-22T08:38:56.372Z,20.48
2023-03-22T08:41:31.216Z,28.92
2023-03-22T08:44:01.618Z,25.10
2023-03-22T08:46:31.539Z,32.03
2023-03-22T08:49:02.446Z,22.37
2023-03-22T08:51:40.237Z,22.85
2023-03-22T08:54:14.386Z,40.35
2023-03-22T08:56:48.137Z,29.72
2023-03-22T08:59:19.330Z,30.48
2023-03-22T09:01:50.475Z,27.22
2023-03-22T09:04:19.916Z,52.17
2023-03-22T09:06:49.526Z,21.70
2023-03-22T09:09:19.215Z,37.25
2023-03-22T09:11:50.489Z,44.33
2023-03-22T09:14:19.996Z,35.13
2023-03-22T09:16:49.883Z,21.85
2023-03-22T09:19:19.992Z,27.62
2023-03-22T09:21:50.123Z,34.70
2023-03-22T09:24:21.626Z,22.35
2023-03-22T09:26:52.783Z,33.55
2023-03-22T09:29:22.272Z,29.40
2023-03-22T09:31:51.736Z,28.80
2023-03-22T09:34:25.845Z,23.35
2023-03-22T09:36:57.435Z,29.70
2023-03-22T09:39:28.795Z,28.92
2023-03-22T09:42:02.394Z,26.82
2023-03-22T09:44:35.054Z,43.75
2023-03-22T09:47:07.313Z,31.42
2023-03-22T09:49:52.589Z,46.05
2023-03-22T09:52:16.769Z,28.40
2023-03-22T09:54:48.009Z,29.70
2023-03-22T09:57:35.355Z,36.53
2023-03-22T10:00:09.426Z,28.57
2023-03-22T10:03:08.923Z,33.08
2023-03-22T10:06:04.125Z,32.98
2023-03-22T10:08:45.839Z,24.92
2023-03-22T10:11:38.923Z,29.92
2023-03-22T10:14:23.459Z,43.13
2023-03-22T10:16:56.540Z,28.00
2023-03-22T10:19:29.042Z,39.38
2023-03-22T10:22:02.180Z,41.98
2023-03-22T10:24:34.737Z,26.27
2023-03-22T10:27:04.599Z,35.00
2023-03-22T10:29:37.049Z,38.90
2023-03-22T10:32:15.654Z,24.75
2023-03-22T10:34:46.559Z,22.37
2023-03-22T10:37:24.861Z,33.42
2023-03-22T10:39:57.017Z,34.38
2023-03-22T10:42:29.683Z,31.15
2023-03-22T10:45:10.950Z,28.77
2023-03-22T10:47:43.397Z,29.72
2023-03-22T10:50:28.692Z,28.50
2023-03-22T10:53:09.548Z,23.40
2023-03-22T10:55:44.170Z,30.23
2023-03-22T10:58:19.745Z,28.30
2023-03-22T11:00:52.296Z,22.17
2023-03-22T11:03:30.954Z,29.05
2023-03-22T11:06:02.970Z,19.27
2023-03-22T11:08:41.078Z,23.25
2023-03-22T11:11:27.957Z,29.35
2023-03-22T11:14:12.314Z,19.60
2023-03-22T11:16:56.465Z,26.57
2023-03-22T11:19:28.485Z,18.92
2023-03-22T11:21:59.793Z,24.87
2023-03-22T11:24:34.623Z,17.25
2023-03-22T11:27:10.141Z,14.18
2023-03-22T11:29:45.350Z,25.05
2023-03-22T11:32:38.443Z,23.52
2023-03-22T11:35:20.493Z,17.77
2023-03-22T11:37:55.467Z,21.40
2023-03-22T11:40:27.441Z,22.95
2023-03-22T11:42:59.310Z,15.95
2023-03-22T11:45:31.734Z,25.05
2023-03-22T11:48:09.771Z,24.35
2023-03-22T11:50:41.775Z,39.03
2023-03-22T11:53:16.826Z,33.58
2023-03-22T11:55:49.001Z,18.40
2023-03-22T11:58:24.307Z,33.65
2023-03-22T12:00:56.444Z,24.05
2023-03-22T12:03:29.031Z,27.35
2023-03-22T12:06:01.554Z,21.60
2023-03-22T12:08:51.970Z,24.90
2023-03-22T12:14:18.901Z,20.27
2023-03-22T12:16:54.015Z,33.10
2023-03-22T12:19:38.212Z,25.45
2023-03-22T12:22:16.620Z,23.60
2023-03-22T12:24:46.739Z,21.10
2023-03-22T12:27:22.257Z,20.82
2023-03-22T12:30:15.854Z,16.52
2023-03-22T12:32:48.357Z,18.17
2023-03-22T12:35:20.782Z,24.20
2023-03-22T12:37:53.358Z,18.62
2023-03-22T12:40:25.807Z,20.08
2023-03-22T12:43:19.369Z,32.45
2023-03-22T12:45:53.235Z,20.08
2023-03-22T12:48:28.254Z,17.65
2023-03-22T12:51:03.645Z,36.70
2023-03-22T12:53:43.751Z,14.38
2023-03-22T12:56:19.246Z,26.93
2023-03-22T12:58:51.816Z,11.05
2023-03-22T13:01:39.696Z,24.32
2023-03-22T13:04:31.599Z,16.82
2023-03-22T13:07:13.035Z,16.35
2023-03-22T13:09:44.960Z,21.02
2023-03-22T13:12:20.345Z,40.28
2023-03-22T13:15:04.550Z,27.45
2023-03-22T13:17:36.735Z,15.70
2023-03-22T13:20:12.096Z,11.90
2023-03-22T13:22:44.593Z,17.00
2023-03-22T13:25:19.701Z,16.57
2023-03-22T13:27:55.236Z,17.20
2023-03-22T13:30:28.208Z,16.17
2023-03-22T13:33:09.818Z,22.80
2023-03-22T13:35:48.695Z,21.70
2023-03-22T13:38:30.271Z,65.47
2023-03-22T13:41:08.851Z,72.50
2023-03-22T13:43:41.287Z,22.32
2023-03-22T13:46:16.612Z,15.80
2023-03-22T13:48:52.310Z,13.88
2023-03-22T13:51:29.525Z,19.75
2023-03-22T13:54:05.350Z,19.95
2023-03-22T13:56:47.691Z,19.82
2023-03-22T13:59:33.851Z,13.30
2023-03-22T14:02:06.487Z,18.48
2023-03-22T14:04:48.092Z,14.45
2023-03-22T14:07:45.628Z,20.45
2023-03-22T14:10:23.523Z,20.62
2023-03-22T14:13:04.785Z,16.40
2023-03-22T14:15:37.250Z,23.15
2023-03-22T14:18:27.982Z,18.27
2023-03-22T14:21:00.376Z,10.75
